Time;durP1;ratioP1;P1;durP2;ratioP2;P2;SDS_P1;SDS_P2;PMS_P1;PMS_P2;Temp;Humidity;BMP_temperature;BMP_pressure;BME280_temperature;BME280_humidity;BME280_pressure;Samples;Min_cycle;Max_cycle;Signal;HPM_P1;HPM_P2
2023/09/07 00:03:13;;;;;;;12.30;9.52;;;;;;;-147.65;100.00;57646.63;10453942;28;20068;-82
2023/09/07 00:08:14;;;;;;;17.42;9.73;;;;;;;-147.65;100.00;57646.63;10434719;28;20140;-82
2023/09/07 00:13:14;;;;;;;10.32;8.30;;;;;;;-147.65;100.00;57646.63;10423926;28;20047;-82
2023/09/07 00:18:15;;;;;;;12.93;9.20;;;;;;;-147.65;100.00;57646.63;10425212;28;20075;-82
2023/09/07 00:23:16;;;;;;;14.82;10.60;;;;;;;-147.65;100.00;57646.63;10439698;28;20081;-82
2023/09/07 00:28:16;;;;;;;12.20;10.70;;;;;;;-147.65;100.00;57646.63;10415505;28;20051;-82
2023/09/07 00:33:17;;;;;;;16.80;11.82;;;;;;;-147.65;100.00;57646.63;10423849;28;20131;-83
2023/09/07 00:38:17;;;;;;;17.92;12.85;;;;;;;-147.65;100.00;57646.63;10428139;28;20180;-81
2023/09/07 00:43:18;;;;;;;18.38;13.10;;;;;;;-147.65;100.00;57646.63;10423043;28;20039;-82
2023/09/07 00:48:18;;;;;;;14.10;10.23;;;;;;;-147.65;100.00;57646.63;10446147;28;20055;-82
2023/09/07 00:53:19;;;;;;;17.73;10.13;;;;;;;-147.65;100.00;57646.63;10419155;28;20069;-80
2023/09/07 00:58:19;;;;;;;14.20;9.25;;;;;;;-147.65;100.00;57646.63;10393634;28;20114;-80
2023/09/07 01:03:20;;;;;;;14.00;10.52;;;;;;;-147.65;100.00;57646.63;10441892;28;20049;-80
2023/09/07 01:08:26;;;;;;;16.77;11.43;;;;;;;-147.65;100.00;57646.63;10425278;28;20040;-80
2023/09/07 01:13:27;;;;;;;18.92;10.02;;;;;;;-147.65;100.00;57646.63;10437672;28;20037;-80
2023/09/07 01:18:27;;;;;;;15.77;10.00;;;;;;;-147.65;100.00;57646.63;10423742;28;20116;-81
2023/09/07 01:23:28;;;;;;;12.82;9.73;;;;;;;-147.65;100.00;57646.63;10419215;28;20128;-81
2023/09/07 01:28:28;;;;;;;12.07;8.93;;;;;;;-147.65;100.00;57646.63;10406808;28;20033;-82
2023/09/07 01:33:29;;;;;;;14.27;9.93;;;;;;;-147.65;100.00;57646.63;10413584;28;20486;-81
2023/09/07 01:38:29;;;;;;;13.90;9.45;;;;;;;-147.65;100.00;57646.63;10422832;28;20133;-82
2023/09/07 01:43:30;;;;;;;14.70;9.43;;;;;;;-147.65;100.00;57646.63;10441201;28;20500;-83
2023/09/07 01:48:30;;;;;;;17.38;11.10;;;;;;;-147.65;100.00;57646.63;10475953;28;20054;-82
2023/09/07 01:53:31;;;;;;;17.50;11.52;;;;;;;-147.65;100.00;57646.63;10450920;28;20407;-83
2023/09/07 01:58:32;;;;;;;15.50;11.50;;;;;;;-147.65;100.00;57646.63;10445796;28;20046;-83
2023/09/07 02:03:33;;;;;;;18.77;12.30;;;;;;;-147.65;100.00;57646.63;10416669;28;20176;-83
2023/09/07 02:08:33;;;;;;;14.05;10.88;;;;;;;-147.65;100.00;57646.63;10406184;28;20543;-83
2023/09/07 02:13:34;;;;;;;17.63;11.82;;;;;;;-147.65;100.00;57646.63;10428074;28;20047;-82
2023/09/07 02:18:36;;;;;;;14.32;9.02;;;;;;;-147.65;100.00;57646.63;10447432;28;20037;-82
2023/09/07 02:23:37;;;;;;;13.18;10.18;;;;;;;-147.65;100.00;57646.63;10409990;28;20045;-82
2023/09/07 02:28:37;;;;;;;18.77;10.77;;;;;;;-147.65;100.00;57646.63;10404234;28;20040;-82
2023/09/07 02:33:38;;;;;;;14.43;9.68;;;;;;;-147.65;100.00;57646.63;10410432;28;20076;-81
2023/09/07 02:38:38;;;;;;;13.10;9.70;;;;;;;-147.65;100.00;57646.63;10437298;28;20562;-82
2023/09/07 02:43:39;;;;;;;18.67;12.15;;;;;;;-147.65;100.00;57646.63;10442577;28;20441;-82
2023/09/07 02:48:39;;;;;;;17.48;12.02;;;;;;;-147.65;100.00;57646.63;10406062;28;20041;-82
2023/09/07 02:53:40;;;;;;;21.75;13.40;;;;;;;-147.65;100.00;57646.63;10434399;28;20063;-83
2023/09/07 02:58:40;;;;;;;19.88;11.93;;;;;;;-147.65;100.00;57646.63;10460503;28;20049;-83
2023/09/07 03:03:42;;;;;;;13.40;10.82;;;;;;;-147.65;100.00;57646.63;10430227;28;20071;-83
2023/09/07 03:08:43;;;;;;;17.35;12.07;;;;;;;-147.65;100.00;57646.63;10468635;28;20480;-83
2023/09/07 03:13:44;;;;;;;15.98;11.23;;;;;;;-147.65;100.00;57646.63;10429457;28;20036;-83
2023/09/07 03:18:44;;;;;;;16.17;12.57;;;;;;;-147.65;100.00;57646.63;10445006;28;20118;-83
2023/09/07 03:23:45;;;;;;;25.48;14.63;;;;;;;-147.65;100.00;57646.63;10433229;28;20040;-83
2023/09/07 03:28:46;;;;;;;18.63;11.18;;;;;;;-147.65;100.00;57646.63;10418723;28;20426;-81
2023/09/07 03:33:46;;;;;;;20.33;14.65;;;;;;;-147.65;100.00;57646.63;10411742;28;20038;-83
2023/09/07 03:38:47;;;;;;;324.85;281.38;;;;;;;-147.65;100.00;57646.63;10417929;28;20033;-82
2023/09/07 03:43:47;;;;;;;20.23;12.95;;;;;;;-147.65;100.00;57646.63;10432091;28;20103;-83
2023/09/07 03:48:48;;;;;;;16.35;11.30;;;;;;;-147.65;100.00;57646.63;10401011;28;20033;-81
2023/09/07 03:53:48;;;;;;;18.73;12.50;;;;;;;-147.65;100.00;57646.63;10419325;28;20045;-83
2023/09/07 03:58:49;;;;;;;16.27;11.75;;;;;;;-147.65;100.00;57646.63;10393240;28;20037;-83
2023/09/07 04:03:50;;;;;;;19.73;12.27;;;;;;;-147.65;100.00;57646.63;10453366;28;20035;-82
2023/09/07 04:08:50;;;;;;;19.00;12.27;;;;;;;-147.65;100.00;57646.63;10400505;28;20053;-82
2023/09/07 04:13:51;;;;;;;15.35;10.73;;;;;;;-147.65;100.00;57646.63;10418686;28;20048;-83
2023/09/07 04:18:51;;;;;;;15.40;11.18;;;;;;;-147.65;100.00;57646.63;10461020;28;20033;-82
2023/09/07 04:23:52;;;;;;;15.25;10.57;;;;;;;-147.65;100.00;57646.63;10412278;28;20046;-82
2023/09/07 04:28:53;;;;;;;20.27;13.25;;;;;;;-147.65;100.00;57646.63;10465000;28;20040;-83
2023/09/07 04:33:54;;;;;;;16.35;10.68;;;;;;;-147.65;100.00;57646.63;10443866;28;20033;-79
2023/09/07 04:38:54;;;;;;;15.38;11.27;;;;;;;-147.65;100.00;57646.63;10440165;28;20048;-79
2023/09/07 04:43:55;;;;;;;16.40;11.27;;;;;;;-147.65;100.00;57646.63;10439273;28;20082;-80
2023/09/07 04:48:55;;;;;;;16.42;12.15;;;;;;;-147.65;100.00;57646.63;10420139;28;20048;-79
2023/09/07 04:53:56;;;;;;;14.18;10.43;;;;;;;-147.65;100.00;57646.63;10419454;28;20128;-80
2023/09/07 04:58:57;;;;;;;15.50;11.77;;;;;;;-147.65;100.00;57646.63;10438881;28;20465;-78
2023/09/07 05:03:58;;;;;;;15.77;11.30;;;;;;;-147.65;100.00;57646.63;10469477;28;20128;-83
2023/09/07 05:08:59;;;;;;;15.45;11.02;;;;;;;-147.65;100.00;57646.63;10445125;28;20120;-80
2023/09/07 05:13:59;;;;;;;17.63;13.05;;;;;;;-147.65;100.00;57646.63;10429597;28;20033;-80
2023/09/07 05:19:00;;;;;;;23.92;12.05;;;;;;;-147.65;100.00;57646.63;10452084;28;20033;-79
2023/09/07 05:24:00;;;;;;;23.27;14.10;;;;;;;-147.65;100.00;57646.63;10455972;28;20037;-79
2023/09/07 05:29:01;;;;;;;18.52;13.35;;;;;;;-147.65;100.00;57646.63;10467507;28;20047;-79
2023/09/07 05:34:01;;;;;;;20.13;12.48;;;;;;;-147.65;100.00;57646.63;10441371;28;20107;-79
2023/09/07 05:39:03;;;;;;;17.13;12.40;;;;;;;-147.65;100.00;57646.63;10447610;28;20115;-79
2023/09/07 05:44:04;;;;;;;19.73;11.88;;;;;;;-147.65;100.00;57646.63;10466399;28;20183;-80
2023/09/07 05:49:05;;;;;;;13.88;10.43;;;;;;;-147.65;100.00;57646.63;10485745;28;20033;-80
2023/09/07 05:54:05;;;;;;;15.82;12.25;;;;;;;-147.65;100.00;57646.63;10452129;28;20389;-79
2023/09/07 05:59:06;;;;;;;15.60;11.00;;;;;;;-147.65;100.00;57646.63;10442900;28;20045;-81
2023/09/07 06:04:07;;;;;;;13.25;10.68;;;;;;;-147.65;100.00;57646.63;10446316;28;20029;-82
2023/09/07 06:09:07;;;;;;;10.60;6.80;;;;;;;-147.65;100.00;57646.63;10433288;28;20055;-83
2023/09/07 06:14:08;;;;;;;12.23;6.28;;;;;;;-147.65;100.00;57646.63;10493527;28;20098;-82
2023/09/07 06:19:08;;;;;;;6.70;5.47;;;;;;;-147.65;100.00;57646.63;10473300;28;20052;-81
2023/09/07 06:24:09;;;;;;;5.33;4.03;;;;;;;-147.65;100.00;57646.63;10431269;28;20048;-81
2023/09/07 06:29:10;;;;;;;8.83;4.50;;;;;;;-147.65;100.00;57646.63;10461986;28;20049;-81
2023/09/07 06:34:11;;;;;;;9.70;4.30;;;;;;;-147.65;100.00;57646.63;10420147;28;20141;-81
2023/09/07 06:39:11;;;;;;;9.40;5.50;;;;;;;-147.65;100.00;57646.63;10448198;28;20140;-81
2023/09/07 06:44:12;;;;;;;7.50;4.40;;;;;;;-147.65;100.00;57646.63;10445734;28;20279;-81
2023/09/07 06:49:12;;;;;;;8.10;4.37;;;;;;;-147.65;100.00;57646.63;10470832;28;20049;-81
2023/09/07 06:54:13;;;;;;;6.90;4.80;;;;;;;-147.65;100.00;57646.63;10475885;28;20098;-81
2023/09/07 06:59:14;;;;;;;8.60;4.53;;;;;;;-147.65;100.00;57646.63;10453022;28;20581;-81
2023/09/07 07:04:14;;;;;;;18.13;8.95;;;;;;;-147.65;100.00;57646.63;10424890;28;20045;-82
2023/09/07 07:09:15;;;;;;;5.30;3.57;;;;;;;-147.65;100.00;57646.63;10446979;28;20050;-82
2023/09/07 07:14:15;;;;;;;5.77;3.80;;;;;;;-147.65;100.00;57646.63;10403144;28;20045;-82
2023/09/07 07:19:16;;;;;;;6.97;3.60;;;;;;;-147.65;100.00;57646.63;10432804;28;20075;-83
2023/09/07 07:24:17;;;;;;;6.50;3.80;;;;;;;-147.65;100.00;57646.63;10408049;28;20350;-80
2023/09/07 07:29:18;;;;;;;5.00;3.50;;;;;;;-147.65;100.00;57646.63;10401305;28;20041;-81
2023/09/07 07:34:18;;;;;;;7.28;4.68;;;;;;;-147.65;100.00;57646.63;10400856;28;20473;-83
2023/09/07 07:39:19;;;;;;;5.55;3.75;;;;;;;-147.65;100.00;57646.63;10424147;28;20144;-81
2023/09/07 07:44:19;;;;;;;7.78;3.80;;;;;;;-147.65;100.00;57646.63;10441166;28;20051;-82
2023/09/07 07:49:20;;;;;;;8.18;4.07;;;;;;;-147.65;100.00;57646.63;10436547;28;20065;-83
2023/09/07 07:54:22;;;;;;;12.75;4.72;;;;;;;-147.65;100.00;57646.63;10472472;28;20465;-82
2023/09/07 07:59:23;;;;;;;10.25;4.20;;;;;;;-147.65;100.00;57646.63;10441606;28;20037;-80
2023/09/07 08:04:23;;;;;;;;;;;;;;;-147.65;100.00;57646.63;10442421;28;20119;-86
2023/09/07 08:09:24;;;;;;;7.87;3.97;;;;;;;-147.65;100.00;57646.63;10401280;28;20377;-86
2023/09/07 08:14:24;;;;;;;;;;;;;;;-147.65;100.00;57646.63;10400441;28;20038;-82
2023/09/07 08:19:27;;;;;;;7.47;3.83;;;;;;;-147.65;100.00;57646.63;10451139;28;20364;-82
2023/09/07 08:24:28;;;;;;;7.40;4.03;;;;;;;-147.65;100.00;57646.63;10441766;28;20489;-85
2023/09/07 08:29:31;;;;;;;;;;;;;;;-147.65;100.00;57646.63;10401097;28;20037;-86
2023/09/07 08:34:32;;;;;;;11.13;4.05;;;;;;;-147.65;100.00;57646.63;10433934;28;20032;-85
2023/09/07 08:39:34;;;;;;;;;;;;;;;-147.65;100.00;57646.63;10455245;28;20037;-81
2023/09/07 08:44:35;;;;;;;9.63;3.95;;;;;;;-147.65;100.00;57646.63;10490806;28;19916;-84
2023/09/07 08:49:35;;;;;;;;;;;;;;;-147.65;100.00;57646.63;10369429;28;20494;-85
2023/09/07 08:54:36;;;;;;;6.73;3.50;;;;;;;-147.65;100.00;57646.63;10482473;28;19920;-81
2023/09/07 08:59:36;;;;;;;12.55;4.60;;;;;;;-147.65;100.00;57646.63;10434453;28;20112;-86
2023/09/07 09:04:38;;;;;;;8.90;4.00;;;;;;;-147.65;100.00;57646.63;10419997;28;20029;-84
2023/09/07 09:09:39;;;;;;;10.45;4.40;;;;;;;-147.65;100.00;57646.63;10406490;28;20116;-84
2023/09/07 09:14:44;;;;;;;6.80;4.03;;;;;;;-147.65;100.00;57646.63;10423620;28;20038;-82
2023/09/07 09:19:44;;;;;;;8.20;3.50;;;;;;;-147.65;100.00;57646.63;10474962;28;20037;-83
2023/09/07 09:24:48;;;;;;;5.47;3.45;;;;;;;-147.65;100.00;57646.63;10468345;28;20485;-82
2023/09/07 09:29:50;;;;;;;8.07;4.90;;;;;;;-147.65;100.00;57646.63;10424483;28;20029;-78
2023/09/07 09:34:51;;;;;;;9.55;4.32;;;;;;;-147.65;100.00;57646.63;10412733;28;20050;-82
2023/09/07 09:39:53;;;;;;;5.68;3.60;;;;;;;-147.65;100.00;57646.63;10466765;28;20079;-81
2023/09/07 09:44:54;;;;;;;10.35;4.32;;;;;;;-147.65;100.00;57646.63;10439973;28;20102;-80
2023/09/07 09:49:54;;;;;;;6.65;4.20;;;;;;;-147.65;100.00;57646.63;10451703;28;20036;-82
2023/09/07 09:54:55;;;;;;;10.82;4.05;;;;;;;-147.65;100.00;57646.63;10438994;28;20049;-82
2023/09/07 09:59:58;;;;;;;7.85;4.38;;;;;;;-147.65;100.00;57646.63;10417670;28;21967;-82
2023/09/07 10:05:01;;;;;;;6.90;3.47;;;;;;;-147.65;100.00;57646.63;10434820;28;20033;-83
2023/09/07 10:10:01;;;;;;;7.40;3.97;;;;;;;-147.65;100.00;57646.63;10460646;28;20040;-80
2023/09/07 10:15:03;;;;;;;6.70;4.20;;;;;;;-147.65;100.00;57646.63;10471455;28;20370;-81
2023/09/07 10:20:07;;;;;;;7.55;5.00;;;;;;;-147.65;100.00;57646.63;10453710;28;20045;-80
2023/09/07 10:25:21;;;;;;;4.88;3.08;;;;;;;-147.65;100.00;57646.63;10465876;28;20043;-82
2023/09/07 10:30:24;;;;;;;5.28;3.88;;;;;;;-147.65;100.00;57646.63;10447083;28;20041;-80
2023/09/07 10:35:27;;;;;;;8.55;4.25;;;;;;;-147.65;100.00;57646.63;10399637;28;20445;-78
2023/09/07 10:40:28;;;;;;;5.88;3.70;;;;;;;-147.65;100.00;57646.63;10444003;28;20098;-77
2023/09/07 10:45:29;;;;;;;7.05;4.97;;;;;;;-147.65;100.00;57646.63;10459642;28;20107;-78
2023/09/07 10:50:29;;;;;;;6.20;4.07;;;;;;;-147.65;100.00;57646.63;10432704;28;20033;-81
2023/09/07 10:55:44;;;;;;;9.63;4.20;;;;;;;-147.65;100.00;57646.63;10417668;28;21604;-80
2023/09/07 11:00:45;;;;;;;7.47;4.10;;;;;;;-147.65;100.00;57646.63;10426243;28;20044;-81
2023/09/07 11:05:45;;;;;;;11.73;6.68;;;;;;;-147.65;100.00;57646.63;10442652;28;20504;-78
2023/09/07 11:10:46;;;;;;;6.75;4.15;;;;;;;-147.65;100.00;57646.63;10402901;28;20063;-81
2023/09/07 11:15:48;;;;;;;8.15;4.07;;;;;;;-147.65;100.00;57646.63;10400989;28;20375;-77
2023/09/07 11:20:51;;;;;;;30.33;19.60;;;;;;;-147.65;100.00;57646.63;10468010;28;20048;-79
2023/09/07 11:25:51;;;;;;;6.80;4.35;;;;;;;-147.65;100.00;57646.63;10470063;28;20037;-79
2023/09/07 11:30:53;;;;;;;6.85;4.15;;;;;;;-147.65;100.00;57646.63;10437816;28;20056;-81
2023/09/07 11:35:56;;;;;;;5.97;4.03;;;;;;;-147.65;100.00;57646.63;10454809;28;20041;-79
2023/09/07 11:40:57;;;;;;;8.10;4.63;;;;;;;-147.65;100.00;57646.63;10452462;28;20086;-80
2023/09/07 11:45:57;;;;;;;8.98;4.05;;;;;;;-147.65;100.00;57646.63;10408108;28;20083;-78
2023/09/07 11:50:58;;;;;;;5.18;3.92;;;;;;;-147.65;100.00;57646.63;10415764;28;20097;-81
2023/09/07 11:55:59;;;;;;;9.80;3.58;;;;;;;-147.65;100.00;57646.63;10455137;28;20147;-79
2023/09/07 12:01:00;;;;;;;4.72;3.70;;;;;;;-147.65;100.00;57646.63;10459323;28;20036;-79
2023/09/07 12:06:00;;;;;;;5.40;3.50;;;;;;;-147.65;100.00;57646.63;10442359;28;20039;-81
2023/09/07 12:11:01;;;;;;;7.35;3.90;;;;;;;-147.65;100.00;57646.63;10464695;28;20099;-77
2023/09/07 12:16:02;;;;;;;5.30;3.53;;;;;;;-147.65;100.00;57646.63;10443025;28;20039;-77
2023/09/07 12:21:02;;;;;;;6.30;3.80;;;;;;;-147.65;100.00;57646.63;10457984;28;20445;-78
2023/09/07 12:26:06;;;;;;;6.95;4.10;;;;;;;-147.65;100.00;57646.63;10441136;28;20106;-78
2023/09/07 12:31:06;;;;;;;6.57;3.85;;;;;;;-147.65;100.00;57646.63;10433356;28;20040;-80
2023/09/07 12:36:09;;;;;;;5.72;3.90;;;;;;;-147.65;100.00;57646.63;10424690;28;20416;-76
2023/09/07 12:41:10;;;;;;;9.95;3.78;;;;;;;-147.65;100.00;57646.63;10457577;28;20041;-78
2023/09/07 12:46:10;;;;;;;11.05;4.03;;;;;;;-147.65;100.00;57646.63;10441902;28;20136;-77
2023/09/07 12:51:11;;;;;;;5.18;3.90;;;;;;;-147.65;100.00;57646.63;10429731;28;20064;-78
2023/09/07 12:56:13;;;;;;;12.48;3.88;;;;;;;-147.65;100.00;57646.63;10407398;28;20499;-77
2023/09/07 13:01:15;;;;;;;4.03;2.95;;;;;;;-147.65;100.00;57646.63;10440061;28;20055;-77
2023/09/07 13:06:17;;;;;;;6.88;4.20;;;;;;;-147.65;100.00;57646.63;10439722;28;20049;-77
2023/09/07 13:11:18;;;;;;;4.85;3.95;;;;;;;-147.65;100.00;57646.63;10435834;28;20041;-78
2023/09/07 13:16:18;;;;;;;9.02;3.70;;;;;;;-147.65;100.00;57646.63;10441513;28;20049;-78
2023/09/07 13:21:19;;;;;;;6.57;4.40;;;;;;;-147.65;100.00;57646.63;10442014;28;20076;-76
2023/09/07 13:26:19;;;;;;;6.20;3.20;;;;;;;-147.65;100.00;57646.63;10412775;28;20061;-77
2023/09/07 13:31:20;;;;;;;7.68;4.10;;;;;;;-147.65;100.00;57646.63;10387769;28;20044;-78
2023/09/07 13:36:21;;;;;;;4.93;3.47;;;;;;;-147.65;100.00;57646.63;10435510;28;20072;-77
2023/09/07 13:41:21;;;;;;;14.68;4.53;;;;;;;-147.65;100.00;57646.63;10416791;28;20048;-76
2023/09/07 13:46:23;;;;;;;8.68;4.70;;;;;;;-147.65;100.00;57646.63;10459307;28;20480;-77
2023/09/07 13:51:24;;;;;;;13.25;4.72;;;;;;;-147.65;100.00;57646.63;10438219;28;20033;-77
2023/09/07 13:56:24;;;;;;;6.60;3.53;;;;;;;-147.65;100.00;57646.63;10428717;28;20042;-77
2023/09/07 14:01:25;;;;;;;6.10;3.80;;;;;;;-147.65;100.00;57646.63;10423711;28;20721;-77
2023/09/07 14:06:26;;;;;;;4.40;3.47;;;;;;;-147.65;100.00;57646.63;10428349;28;20407;-76
2023/09/07 14:11:26;;;;;;;6.82;3.60;;;;;;;-147.65;100.00;57646.63;10417067;28;20045;-76
2023/09/07 14:16:27;;;;;;;6.75;4.35;;;;;;;-147.65;100.00;57646.63;10443721;28;20044;-76
2023/09/07 14:21:27;;;;;;;7.53;4.20;;;;;;;-147.65;100.00;57646.63;10425757;28;20049;-76
2023/09/07 14:26:28;;;;;;;11.00;4.53;;;;;;;-147.65;100.00;57646.63;10396310;28;20041;-77
2023/09/07 14:31:28;;;;;;;7.05;4.45;;;;;;;-147.65;100.00;57646.63;10404520;28;20492;-77
2023/09/07 14:36:29;;;;;;;5.90;3.70;;;;;;;-147.65;100.00;57646.63;10436860;28;20098;-77
2023/09/07 14:41:30;;;;;;;7.07;4.28;;;;;;;-147.65;100.00;57646.63;10479651;28;20443;-77
2023/09/07 14:46:30;;;;;;;9.30;4.22;;;;;;;-147.65;100.00;57646.63;10449209;28;20037;-76
2023/09/07 14:51:31;;;;;;;5.97;3.88;;;;;;;-147.65;100.00;57646.63;10429994;28;20140;-77
2023/09/07 14:56:35;;;;;;;6.38;4.20;;;;;;;-147.65;100.00;57646.63;10465989;28;20041;-77
2023/09/07 15:01:35;;;;;;;6.38;3.92;;;;;;;-147.65;100.00;57646.63;10445119;28;20040;-78
2023/09/07 15:06:37;;;;;;;8.05;4.10;;;;;;;-147.65;100.00;57646.63;10441076;28;20049;-81
2023/09/07 15:11:37;;;;;;;5.50;3.45;;;;;;;-147.65;100.00;57646.63;10415795;28;20065;-80
2023/09/07 15:16:38;;;;;;;5.90;4.18;;;;;;;-147.65;100.00;57646.63;10441833;28;20120;-77
2023/09/07 15:21:38;;;;;;;5.25;3.70;;;;;;;-147.65;100.00;57646.63;10445150;28;20102;-80
2023/09/07 15:26:42;;;;;;;;;;;;;;;-147.65;100.00;57646.63;10457997;28;20049;-79
2023/09/07 15:31:43;;;;;;;10.85;5.07;;;;;;;-147.65;100.00;57646.63;10456060;28;19921;-83
2023/09/07 15:36:43;;;;;;;;;;;;;;;-147.65;100.00;57646.63;10473116;28;20124;-77
2023/09/07 15:41:44;;;;;;;5.77;3.97;;;;;;;-147.65;100.00;57646.63;10448716;28;20332;-77
2023/09/07 15:46:45;;;;;;;8.20;4.93;;;;;;;-147.65;100.00;57646.63;10466074;28;20029;-78
2023/09/07 15:51:45;;;;;;;5.70;4.28;;;;;;;-147.65;100.00;57646.63;10448248;28;20060;-78
2023/09/07 15:56:46;;;;;;;7.05;4.30;;;;;;;-147.65;100.00;57646.63;10465372;28;20052;-77
2023/09/07 16:01:46;;;;;;;5.50;3.83;;;;;;;-147.65;100.00;57646.63;10463139;28;20557;-80
2023/09/07 16:06:47;;;;;;;6.10;4.03;;;;;;;-147.65;100.00;57646.63;10475625;28;20077;-77
2023/09/07 16:11:48;;;;;;;6.20;4.17;;;;;;;-147.65;100.00;57646.63;10445302;28;20167;-76
2023/09/07 16:16:48;;;;;;;10.63;3.97;;;;;;;-147.65;100.00;57646.63;10399835;28;20037;-77
2023/09/07 16:21:49;;;;;;;5.87;3.97;;;;;;;-147.65;100.00;57646.63;10461241;28;20072;-77
2023/09/07 16:26:49;;;;;;;9.63;5.17;;;;;;;-147.65;100.00;57646.63;10431167;28;20037;-77
2023/09/07 16:31:50;;;;;;;7.47;4.03;;;;;;;-147.65;100.00;57646.63;10482628;28;20057;-77
2023/09/07 16:36:50;;;;;;;5.07;4.20;;;;;;;-147.65;100.00;57646.63;10440575;28;20045;-76
2023/09/07 16:41:51;;;;;;;6.93;6.03;;;;;;;-147.65;100.00;57646.63;10481511;28;20037;-76
2023/09/07 16:46:51;;;;;;;7.90;5.00;;;;;;;-147.65;100.00;57646.63;10442049;28;20762;-77
2023/09/07 16:51:52;;;;;;;6.93;4.77;;;;;;;-147.65;100.00;57646.63;10436874;28;20034;-77
2023/09/07 16:56:53;;;;;;;6.35;4.63;;;;;;;-147.65;100.00;57646.63;10416908;28;20048;-76
2023/09/07 17:01:53;;;;;;;8.73;4.77;;;;;;;-147.65;100.00;57646.63;10465260;28;20037;-76
2023/09/07 17:06:54;;;;;;;7.20;5.20;;;;;;;-147.65;100.00;57646.63;10478375;28;20124;-76
2023/09/07 17:11:54;;;;;;;7.80;4.87;;;;;;;-147.65;100.00;57646.63;10461656;28;20036;-76
2023/09/07 17:16:56;;;;;;;9.73;5.40;;;;;;;-147.65;100.00;57646.63;10450737;28;20054;-76
2023/09/07 17:21:57;;;;;;;;;;;;;;;-147.65;100.00;57646.63;10480872;28;20105;-76
2023/09/07 17:26:57;;;;;;;7.00;4.60;;;;;;;-147.65;100.00;57646.63;10484849;28;19924;-77
2023/09/07 17:31:58;;;;;;;7.27;5.73;;;;;;;-147.65;100.00;57646.63;10455871;28;20063;-77
2023/09/07 17:36:58;;;;;;;8.10;5.67;;;;;;;-147.65;100.00;57646.63;10450512;28;20260;-75
2023/09/07 17:41:59;;;;;;;9.20;6.60;;;;;;;-147.65;100.00;57646.63;10452303;28;20041;-76
2023/09/07 17:47:00;;;;;;;9.07;5.63;;;;;;;-147.65;100.00;57646.63;10408462;28;20046;-76
2023/09/07 17:52:00;;;;;;;9.67;5.93;;;;;;;-147.65;100.00;57646.63;10426726;28;20490;-75
2023/09/07 17:57:01;;;;;;;8.03;5.93;;;;;;;-147.65;100.00;57646.63;10393305;28;20501;-75
2023/09/07 18:02:01;;;;;;;8.37;6.60;;;;;;;-147.65;100.00;57646.63;10472877;28;20546;-76
2023/09/07 18:07:02;;;;;;;7.87;6.23;;;;;;;-147.65;100.00;57646.63;10436988;28;20061;-80
2023/09/07 18:12:02;;;;;;;10.73;6.10;;;;;;;-147.65;100.00;57646.63;10442178;28;20044;-75
2023/09/07 18:17:03;;;;;;;12.30;7.63;;;;;;;-147.65;100.00;57646.63;10415337;28;20045;-75
2023/09/07 18:22:04;;;;;;;9.30;6.30;;;;;;;-147.65;100.00;57646.63;10445513;28;20041;-75
2023/09/07 18:27:04;;;;;;;7.10;6.40;;;;;;;-147.65;100.00;57646.63;10401713;28;20416;-75
2023/09/07 18:32:05;;;;;;;14.43;7.23;;;;;;;-147.65;100.00;57646.63;10407101;28;20686;-75
2023/09/07 18:37:06;;;;;;;7.97;6.87;;;;;;;-147.65;100.00;57646.63;10449740;28;20067;-76
2023/09/07 18:42:06;;;;;;;9.90;6.47;;;;;;;-147.65;100.00;57646.63;10467080;28;20116;-75
2023/09/07 18:47:07;;;;;;;16.83;7.40;;;;;;;-147.65;100.00;57646.63;10442476;28;20033;-75
2023/09/07 18:52:07;;;;;;;9.88;6.20;;;;;;;-147.65;100.00;57646.63;10408432;28;20033;-75
2023/09/07 18:57:08;;;;;;;12.90;9.60;;;;;;;-147.65;100.00;57646.63;10403397;28;20597;-76
2023/09/07 19:02:08;;;;;;;10.67;7.33;;;;;;;-147.65;100.00;57646.63;10444012;28;20041;-75
2023/09/07 19:07:09;;;;;;;15.30;8.53;;;;;;;-147.65;100.00;57646.63;10461310;28;20432;-79
2023/09/07 19:12:10;;;;;;;13.02;7.50;;;;;;;-147.65;100.00;57646.63;10444024;28;20072;-76
2023/09/07 19:17:11;;;;;;;14.13;11.13;;;;;;;-147.65;100.00;57646.63;10426842;28;20056;-75
2023/09/07 19:22:12;;;;;;;11.40;7.57;;;;;;;-147.65;100.00;57646.63;10384599;28;20060;-76
2023/09/07 19:27:12;;;;;;;11.80;6.72;;;;;;;-147.65;100.00;57646.63;10441553;28;20033;-76
2023/09/07 19:32:17;;;;;;;14.40;8.68;;;;;;;-147.65;100.00;57646.63;10425386;28;20132;-76
2023/09/07 19:37:18;;;;;;;9.88;8.10;;;;;;;-147.65;100.00;57646.63;10416505;28;20038;-76
2023/09/07 19:42:19;;;;;;;11.05;7.10;;;;;;;-147.65;100.00;57646.63;10435315;28;20045;-76
2023/09/07 19:47:19;;;;;;;12.23;7.65;;;;;;;-147.65;100.00;57646.63;10427904;28;20467;-76
2023/09/07 19:52:20;;;;;;;9.75;7.43;;;;;;;-147.65;100.00;57646.63;10441215;28;20085;-75
2023/09/07 19:57:20;;;;;;;10.25;7.18;;;;;;;-147.65;100.00;57646.63;10450847;28;20076;-75
2023/09/07 20:02:21;;;;;;;10.82;8.00;;;;;;;-147.65;100.00;57646.63;10440730;28;20070;-75
2023/09/07 20:07:21;;;;;;;14.40;8.57;;;;;;;-147.65;100.00;57646.63;10451964;28;20044;-75
2023/09/07 20:12:22;;;;;;;9.85;7.55;;;;;;;-147.65;100.00;57646.63;10443199;28;20114;-76
2023/09/07 20:17:22;;;;;;;10.45;8.07;;;;;;;-147.65;100.00;57646.63;10444920;28;20061;-75
2023/09/07 20:22:27;;;;;;;14.02;8.48;;;;;;;-147.65;100.00;57646.63;10424658;28;20604;-76
2023/09/07 20:27:27;;;;;;;14.38;8.20;;;;;;;-147.65;100.00;57646.63;10442036;28;20397;-76
2023/09/07 20:32:28;;;;;;;9.50;7.50;;;;;;;-147.65;100.00;57646.63;10417159;28;20174;-75
2023/09/07 20:37:29;;;;;;;12.93;7.75;;;;;;;-147.65;100.00;57646.63;10462432;28;20074;-76
2023/09/07 20:42:29;;;;;;;9.50;7.13;;;;;;;-147.65;100.00;57646.63;10471617;28;20561;-75
2023/09/07 20:47:30;;;;;;;11.27;6.85;;;;;;;-147.65;100.00;57646.63;10461461;28;20041;-76
2023/09/07 20:52:30;;;;;;;10.80;8.13;;;;;;;-147.65;100.00;57646.63;10436410;28;20450;-76
2023/09/07 20:57:31;;;;;;;17.88;8.38;;;;;;;-147.65;100.00;57646.63;10448397;28;20047;-76
2023/09/07 21:02:32;;;;;;;11.10;7.45;;;;;;;-147.65;100.00;57646.63;10451231;28;20040;-76
2023/09/07 21:07:33;;;;;;;15.63;9.10;;;;;;;-147.65;100.00;57646.63;10469603;28;20059;-76
2023/09/07 21:12:33;;;;;;;12.40;7.82;;;;;;;-147.65;100.00;57646.63;10467938;28;20049;-75
2023/09/07 21:17:34;;;;;;;11.45;7.18;;;;;;;-147.65;100.00;57646.63;10491018;28;20036;-75
2023/09/07 21:22:34;;;;;;;15.93;7.43;;;;;;;-147.65;100.00;57646.63;10451917;28;20552;-75
2023/09/07 21:27:35;;;;;;;13.45;8.30;;;;;;;-147.65;100.00;57646.63;10447958;28;20039;-75
2023/09/07 21:32:36;;;;;;;11.13;8.15;;;;;;;-147.65;100.00;57646.63;10413087;28;20050;-75
2023/09/07 21:37:36;;;;;;;9.95;6.97;;;;;;;-147.65;100.00;57646.63;10401768;28;20121;-76
2023/09/07 21:42:37;;;;;;;13.05;8.95;;;;;;;-147.65;100.00;57646.63;10486430;28;20045;-75
2023/09/07 21:47:37;;;;;;;10.88;7.63;;;;;;;-147.65;100.00;57646.63;10454168;28;20048;-75
2023/09/07 21:52:38;;;;;;;13.52;9.40;;;;;;;-147.65;100.00;57646.63;10480918;28;20095;-75
2023/09/07 21:57:38;;;;;;;12.00;9.63;;;;;;;-147.65;100.00;57646.63;10440960;28;20392;-76
2023/09/07 22:02:39;;;;;;;18.13;11.45;;;;;;;-147.65;100.00;57646.63;10450288;28;20033;-75
2023/09/07 22:07:39;;;;;;;13.15;8.48;;;;;;;-147.65;100.00;57646.63;10447758;28;20032;-76
2023/09/07 22:12:41;;;;;;;11.30;7.55;;;;;;;-147.65;100.00;57646.63;10430299;28;20060;-76
2023/09/07 22:17:42;;;;;;;12.25;8.98;;;;;;;-147.65;100.00;57646.63;10438997;28;20469;-77
2023/09/07 22:22:43;;;;;;;10.93;7.85;;;;;;;-147.65;100.00;57646.63;10437000;28;20044;-76